Time,TemperatureF,DewpointF,PressureIn,WindDirection,WindDirectionDegrees,WindSpeedMPH,WindSpeedGustMPH,Humidity,HourlyPrecipIn,Conditions,Clouds,dailyrainin,SolarRadiationWatts/m^2,SoftwareType,DateUTC
2013-02-15 00:02:00,14.0,7.0,-100.00,NW,304,4.0,10.0,72,0.00,,,0.00,0.000000,,2013-02-15 06:02:00,
2013-02-15 00:11:00,14.0,7.0,-100.00,NW,304,4.0,10.0,72,0.00,,,0.00,0.000000,,2013-02-15 06:11:00,
2013-02-15 00:32:00,14.0,5.0,-100.00,NW,312,5.0,13.0,67,0.00,,,0.00,0.000000,,2013-02-15 06:32:00,
2013-02-15 00:42:00,14.0,5.0,-100.00,NW,312,5.0,13.0,67,0.00,,,0.00,0.000000,,2013-02-15 06:42:00,
2013-02-15 00:52:00,14.0,5.0,-100.00,NW,312,5.0,13.0,67,0.00,,,0.00,0.000000,,2013-02-15 06:52:00,
2013-02-15 01:01:00,14.0,5.0,-100.00,NW,312,5.0,13.0,67,0.00,,,0.00,0.000000,,2013-02-15 07:01:00,
2013-02-15 01:11:00,14.0,5.0,-100.00,NW,312,5.0,13.0,67,0.00,,,0.00,0.000000,,2013-02-15 07:11:00,
2013-02-15 01:42:00,12.0,4.0,-100.00,WNW,289,3.0,14.0,69,0.00,,,0.00,0.000000,,2013-02-15 07:42:00,
2013-02-15 01:52:00,12.0,4.0,-100.00,WNW,289,3.0,14.0,69,0.00,,,0.00,0.000000,,2013-02-15 07:52:00,
2013-02-15 02:01:00,12.0,4.0,-100.00,WNW,289,3.0,14.0,69,0.00,,,0.00,0.000000,,2013-02-15 08:01:00,
2013-02-15 02:11:00,12.0,4.0,-100.00,WNW,289,3.0,14.0,69,0.00,,,0.00,0.000000,,2013-02-15 08:11:00,
2013-02-15 02:32:00,11.0,4.0,-100.00,WNW,292,4.0,9.0,73,0.00,,,0.00,0.000000,,2013-02-15 08:32:00,
2013-02-15 02:42:00,11.0,4.0,-100.00,WNW,292,4.0,9.0,73,0.00,,,0.00,0.000000,,2013-02-15 08:42:00,
2013-02-15 02:53:00,11.0,4.0,-100.00,WNW,292,4.0,9.0,73,0.00,,,0.00,0.000000,,2013-02-15 08:53:00,
2013-02-15 03:01:00,11.0,4.0,-100.00,WNW,292,4.0,9.0,73,0.00,,,0.00,0.000000,,2013-02-15 09:01:00,
2013-02-15 03:12:00,11.0,4.0,-100.00,WNW,292,4.0,9.0,73,0.00,,,0.00,0.000000,,2013-02-15 09:12:00,
2013-02-15 03:42:00,10.0,3.0,-100.00,WNW,298,4.0,14.0,71,0.00,,,0.00,0.000000,,2013-02-15 09:42:00,
2013-02-15 03:52:00,10.0,3.0,-100.00,WNW,298,4.0,14.0,71,0.00,,,0.00,0.000000,,2013-02-15 09:52:00,
2013-02-15 04:01:00,10.0,3.0,-100.00,WNW,298,4.0,14.0,71,0.00,,,0.00,0.000000,,2013-02-15 10:01:00,
2013-02-15 04:11:00,10.0,3.0,-100.00,WNW,298,4.0,14.0,71,0.00,,,0.00,0.000000,,2013-02-15 10:11:00,
2013-02-15 04:42:00,7.0,2.0,-100.00,WNW,291,2.0,6.0,79,0.00,,,0.00,0.000000,,2013-02-15 10:42:00,
2013-02-15 04:52:00,7.0,2.0,-100.00,WNW,291,2.0,6.0,79,0.00,,,0.00,0.000000,,2013-02-15 10:52:00,
2013-02-15 05:01:00,7.0,2.0,-100.00,WNW,291,2.0,6.0,79,0.00,,,0.00,0.000000,,2013-02-15 11:01:00,
2013-02-15 05:11:00,7.0,2.0,-100.00,WNW,291,2.0,6.0,79,0.00,,,0.00,0.000000,,2013-02-15 11:11:00,
2013-02-15 05:32:00,4.0,0.0,-100.00,WSW,257,1.0,5.0,84,0.00,,,0.00,0.000000,,2013-02-15 11:32:00,
2013-02-15 05:42:00,4.0,0.0,-100.00,WSW,257,1.0,5.0,84,0.00,,,0.00,0.000000,,2013-02-15 11:42:00,
2013-02-15 05:52:00,4.0,0.0,-100.00,WSW,257,1.0,5.0,84,0.00,,,0.00,0.000000,,2013-02-15 11:52:00,
2013-02-15 06:02:00,4.0,0.0,-100.00,WSW,257,1.0,5.0,84,0.00,,,0.00,0.000000,,2013-02-15 12:02:00,
2013-02-15 06:11:00,4.0,0.0,-100.00,WSW,257,1.0,5.0,84,0.00,,,0.00,0.000000,,2013-02-15 12:11:00,
2013-02-15 06:32:00,10.0,4.0,-100.00,NW,313,2.0,8.0,75,-99.99,,,0.00,0.000000,,2013-02-15 12:32:00,
2013-02-15 06:42:00,10.0,4.0,-100.00,NW,313,2.0,8.0,75,-99.99,,,0.00,0.000000,,2013-02-15 12:42:00,
2013-02-15 06:52:00,10.0,4.0,-100.00,NW,313,2.0,8.0,75,-99.99,,,0.00,0.000000,,2013-02-15 12:52:00,
2013-02-15 07:02:00,10.0,4.0,-100.00,NW,313,2.0,8.0,75,-99.99,,,0.00,0.000000,,2013-02-15 13:02:00,
2013-02-15 07:11:00,10.0,4.0,-100.00,NW,313,2.0,8.0,75,-99.99,,,0.00,0.000000,,2013-02-15 13:11:00,
2013-02-15 07:42:00,4.0,1.0,-100.00,West,276,1.0,4.0,85,0.00,,,-99.99,4.000000,,2013-02-15 13:42:00,
2013-02-15 07:52:00,4.0,1.0,-100.00,West,276,1.0,4.0,85,0.00,,,-99.99,4.000000,,2013-02-15 13:52:00,
2013-02-15 08:01:00,4.0,1.0,-100.00,West,276,1.0,4.0,85,0.00,,,-99.99,4.000000,,2013-02-15 14:01:00,
2013-02-15 08:12:00,4.0,1.0,-100.00,West,276,1.0,4.0,85,0.00,,,-99.99,4.000000,,2013-02-15 14:12:00,
2013-02-15 08:42:00,8.0,3.0,-100.00,WSW,255,2.0,3.0,78,0.00,,,0.00,63.000000,,2013-02-15 14:42:00,
2013-02-15 08:52:00,8.0,3.0,-100.00,WSW,255,2.0,3.0,78,0.00,,,0.00,63.000000,,2013-02-15 14:52:00,
2013-02-15 09:01:00,8.0,3.0,-100.00,WSW,255,2.0,3.0,78,0.00,,,0.00,63.000000,,2013-02-15 15:01:00,
2013-02-15 09:11:00,8.0,3.0,-100.00,WSW,255,2.0,3.0,78,0.00,,,0.00,63.000000,,2013-02-15 15:11:00,
2013-02-15 09:32:00,17.0,7.0,-100.00,West,276,3.0,8.0,65,0.00,,,0.00,181.000000,,2013-02-15 15:32:00,
2013-02-15 09:42:00,17.0,7.0,-100.00,West,276,3.0,8.0,65,0.00,,,0.00,181.000000,,2013-02-15 15:42:00,
2013-02-15 09:52:00,17.0,7.0,-100.00,West,276,3.0,8.0,65,0.00,,,0.00,181.000000,,2013-02-15 15:52:00,
2013-02-15 10:02:00,17.0,7.0,-100.00,West,276,3.0,8.0,65,0.00,,,0.00,181.000000,,2013-02-15 16:02:00,
2013-02-15 10:11:00,17.0,7.0,-100.00,West,276,3.0,8.0,65,0.00,,,0.00,181.000000,,2013-02-15 16:11:00,
2013-02-15 10:32:00,21.0,7.0,-100.00,NW,315,5.0,12.0,53,0.00,,,0.00,412.000000,,2013-02-15 16:32:00,
2013-02-15 10:43:00,21.0,7.0,-100.00,NW,315,5.0,12.0,53,0.00,,,0.00,412.000000,,2013-02-15 16:43:00,
2013-02-15 10:52:00,21.0,7.0,-100.00,NW,315,5.0,12.0,53,0.00,,,0.00,412.000000,,2013-02-15 16:52:00,
2013-02-15 11:01:00,21.0,7.0,-100.00,NW,315,5.0,12.0,53,0.00,,,0.00,412.000000,,2013-02-15 17:01:00,
2013-02-15 11:11:00,21.0,7.0,-100.00,NW,315,5.0,12.0,53,0.00,,,0.00,412.000000,,2013-02-15 17:11:00,
2013-02-15 11:32:00,20.0,4.0,-100.00,NNW,330,6.0,18.0,48,0.00,,,0.00,351.000000,,2013-02-15 17:32:00,
2013-02-15 11:42:00,20.0,4.0,-100.00,NNW,330,6.0,18.0,48,0.00,,,0.00,351.000000,,2013-02-15 17:42:00,
2013-02-15 11:52:00,20.0,4.0,-100.00,NNW,330,6.0,18.0,48,0.00,,,0.00,351.000000,,2013-02-15 17:52:00,
2013-02-15 12:01:00,20.0,4.0,-100.00,NNW,330,6.0,18.0,48,0.00,,,0.00,351.000000,,2013-02-15 18:01:00,
2013-02-15 12:11:00,20.0,4.0,-100.00,NNW,330,6.0,18.0,48,0.00,,,0.00,351.000000,,2013-02-15 18:11:00,
2013-02-15 12:42:00,19.0,6.0,-100.00,NW,307,5.0,14.0,56,0.00,,,0.00,238.000000,,2013-02-15 18:42:00,
2013-02-15 12:53:00,19.0,6.0,-100.00,NW,307,5.0,14.0,56,0.00,,,0.00,238.000000,,2013-02-15 18:53:00,
2013-02-15 13:01:00,19.0,6.0,-100.00,NW,307,5.0,14.0,56,0.00,,,0.00,238.000000,,2013-02-15 19:01:00,
2013-02-15 13:11:00,19.0,6.0,-100.00,NW,307,5.0,14.0,56,0.00,,,0.00,238.000000,,2013-02-15 19:11:00,
2013-02-15 13:42:00,20.0,5.0,-100.00,NNW,339,5.0,14.0,51,0.00,,,-99.99,302.000000,,2013-02-15 19:42:00,
2013-02-15 13:52:00,20.0,5.0,-100.00,NNW,339,5.0,14.0,51,0.00,,,-99.99,302.000000,,2013-02-15 19:52:00,
2013-02-15 14:01:00,20.0,5.0,-100.00,NNW,339,5.0,14.0,51,0.00,,,-99.99,302.000000,,2013-02-15 20:01:00,
2013-02-15 14:11:00,20.0,5.0,-100.00,NNW,339,5.0,14.0,51,0.00,,,-99.99,302.000000,,2013-02-15 20:11:00,
2013-02-15 14:42:00,20.0,4.0,-100.00,NW,306,6.0,13.0,48,0.00,,,0.00,230.000000,,2013-02-15 20:42:00,
2013-02-15 14:52:00,20.0,4.0,-100.00,NW,306,6.0,13.0,48,0.00,,,0.00,230.000000,,2013-02-15 20:52:00,
2013-02-15 15:02:00,20.0,4.0,-100.00,NW,306,6.0,13.0,48,0.00,,,0.00,230.000000,,2013-02-15 21:02:00,
2013-02-15 15:11:00,20.0,4.0,-100.00,NW,306,6.0,13.0,48,0.00,,,0.00,230.000000,,2013-02-15 21:11:00,
2013-02-15 15:42:00,18.0,6.0,-100.00,NW,311,6.0,17.0,60,0.00,,,0.00,197.000000,,2013-02-15 21:42:00,
2013-02-15 15:52:00,18.0,6.0,-100.00,NW,311,6.0,17.0,60,0.00,,,0.00,197.000000,,2013-02-15 21:52:00,
2013-02-15 16:02:00,18.0,6.0,-100.00,NW,311,6.0,17.0,60,0.00,,,0.00,197.000000,,2013-02-15 22:02:00,
2013-02-15 16:11:00,18.0,6.0,-100.00,NW,311,6.0,17.0,60,0.00,,,0.00,197.000000,,2013-02-15 22:11:00,
2013-02-15 16:42:00,16.0,5.0,-100.00,NW,320,5.0,16.0,62,0.00,,,0.00,116.000000,,2013-02-15 22:42:00,
2013-02-15 16:52:00,16.0,5.0,-100.00,NW,320,5.0,16.0,62,0.00,,,0.00,116.000000,,2013-02-15 22:52:00,
2013-02-15 17:02:00,16.0,5.0,-100.00,NW,320,5.0,16.0,62,0.00,,,0.00,116.000000,,2013-02-15 23:02:00,
2013-02-15 17:11:00,16.0,5.0,-100.00,NW,320,5.0,16.0,62,0.00,,,0.00,116.000000,,2013-02-15 23:11:00,
2013-02-15 17:32:00,13.0,4.0,-100.00,NNW,328,7.0,15.0,67,0.00,,,0.00,46.000000,,2013-02-15 23:32:00,
2013-02-15 17:42:00,13.0,4.0,-100.00,NNW,328,7.0,15.0,67,0.00,,,0.00,46.000000,,2013-02-15 23:42:00,
2013-02-15 17:52:00,13.0,4.0,-100.00,NNW,328,7.0,15.0,67,0.00,,,0.00,46.000000,,2013-02-15 23:52:00,
2013-02-15 18:02:00,13.0,4.0,-100.00,NNW,328,7.0,15.0,67,0.00,,,0.00,46.000000,,2013-02-16 00:02:00,
2013-02-15 18:11:00,13.0,4.0,-100.00,NNW,328,7.0,15.0,67,0.00,,,0.00,46.000000,,2013-02-16 00:11:00,
2013-02-15 18:32:00,10.0,6.0,-100.00,NW,310,4.0,10.0,82,0.00,,,0.00,2.000000,,2013-02-16 00:32:00,
2013-02-15 18:42:00,10.0,6.0,-100.00,NW,310,4.0,10.0,82,0.00,,,0.00,2.000000,,2013-02-16 00:42:00,
2013-02-15 18:52:00,10.0,6.0,-100.00,NW,310,4.0,10.0,82,0.00,,,0.00,2.000000,,2013-02-16 00:52:00,
2013-02-15 19:02:00,10.0,6.0,-100.00,NW,310,4.0,10.0,82,0.00,,,0.00,2.000000,,2013-02-16 01:02:00,
2013-02-15 19:11:00,10.0,6.0,-100.00,NW,310,4.0,10.0,82,0.00,,,0.00,2.000000,,2013-02-16 01:11:00,
2013-02-15 19:32:00,7.0,2.0,-100.00,NW,311,2.0,8.0,81,0.00,,,-99.99,0.000000,,2013-02-16 01:32:00,
2013-02-15 19:42:00,7.0,2.0,-100.00,NW,311,2.0,8.0,81,0.00,,,-99.99,0.000000,,2013-02-16 01:42:00,
2013-02-15 19:52:00,7.0,2.0,-100.00,NW,311,2.0,8.0,81,0.00,,,-99.99,0.000000,,2013-02-16 01:52:00,
2013-02-15 20:01:00,7.0,2.0,-100.00,NW,311,2.0,8.0,81,0.00,,,-99.99,0.000000,,2013-02-16 02:01:00,
2013-02-15 20:11:00,7.0,2.0,-100.00,NW,311,2.0,8.0,81,0.00,,,-99.99,0.000000,,2013-02-16 02:11:00,
2013-02-15 20:42:00,4.0,0.0,-100.00,WNW,293,1.0,5.0,83,0.00,,,0.00,0.000000,,2013-02-16 02:42:00,
2013-02-15 20:52:00,4.0,0.0,-100.00,WNW,293,1.0,5.0,83,0.00,,,0.00,0.000000,,2013-02-16 02:52:00,
2013-02-15 21:02:00,4.0,0.0,-100.00,WNW,293,1.0,5.0,83,0.00,,,0.00,0.000000,,2013-02-16 03:02:00,
2013-02-15 21:11:00,4.0,0.0,-100.00,WNW,293,1.0,5.0,83,0.00,,,0.00,0.000000,,2013-02-16 03:11:00,
2013-02-15 21:42:00,0.0,-4.0,-100.00,WNW,288,1.0,3.0,84,0.00,,,0.00,0.000000,,2013-02-16 03:42:00,
2013-02-15 21:52:00,0.0,-4.0,-100.00,WNW,288,1.0,3.0,84,0.00,,,0.00,0.000000,,2013-02-16 03:52:00,
2013-02-15 22:01:00,0.0,-4.0,-100.00,WNW,288,1.0,3.0,84,0.00,,,0.00,0.000000,,2013-02-16 04:01:00,
2013-02-15 22:11:00,0.0,-4.0,-100.00,WNW,288,1.0,3.0,84,0.00,,,0.00,0.000000,,2013-02-16 04:11:00,
2013-02-15 22:32:00,-3.0,-7.0,-100.00,WNW,294,0.0,2.0,82,0.00,,,0.00,0.000000,,2013-02-16 04:32:00,
2013-02-15 22:42:00,-3.0,-7.0,-100.00,WNW,294,0.0,2.0,82,0.00,,,0.00,0.000000,,2013-02-16 04:42:00,
2013-02-15 22:52:00,-3.0,-7.0,-100.00,WNW,294,0.0,2.0,82,0.00,,,0.00,0.000000,,2013-02-16 04:52:00,
2013-02-15 23:01:00,-3.0,-7.0,-100.00,WNW,294,0.0,2.0,82,0.00,,,0.00,0.000000,,2013-02-16 05:01:00,
2013-02-15 23:12:00,-3.0,-7.0,-100.00,WNW,294,0.0,2.0,82,0.00,,,0.00,0.000000,,2013-02-16 05:12:00,
2013-02-15 23:32:00,-5.0,-9.0,-100.00,NW,308,0.0,0.0,82,0.00,,,0.00,0.000000,,2013-02-16 05:32:00,
2013-02-15 23:42:00,-5.0,-9.0,-100.00,NW,308,0.0,0.0,82,0.00,,,0.00,0.000000,,2013-02-16 05:42:00,
2013-02-15 23:52:00,-5.0,-9.0,-100.00,NW,308,0.0,0.0,82,0.00,,,0.00,0.000000,,2013-02-16 05:52:00,